createdAt,value
2018-05-31T00:00:27.509Z,20.60
2018-05-31T00:01:27.576Z,20.58
2018-05-31T00:02:27.741Z,20.59
2018-05-31T00:03:27.809Z,20.43
2018-05-31T00:04:27.785Z,20.50
2018-05-31T00:05:27.845Z,20.51
2018-05-31T00:06:27.977Z,20.51
2018-05-31T00:07:28.117Z,20.41
2018-05-31T00:08:28.075Z,20.44
2018-05-31T00:09:28.153Z,20.31
2018-05-31T00:10:28.189Z,20.37
2018-05-31T00:11:28.249Z,20.36
2018-05-31T00:12:28.549Z,20.32
2018-05-31T00:13:28.405Z,20.31
2018-05-31T00:14:28.463Z,20.29
2018-05-31T00:15:28.525Z,20.36
2018-05-31T00:16:29.249Z,20.36
2018-05-31T00:17:28.657Z,20.18
2018-05-31T00:18:28.730Z,20.19
2018-05-31T00:19:28.802Z,20.19
2018-05-31T00:20:28.858Z,20.21
2018-05-31T00:21:28.930Z,20.18
2018-05-31T00:22:28.994Z,20.18
2018-05-31T00:23:29.066Z,20.24
2018-05-31T00:24:29.530Z,20.18
2018-05-31T00:25:29.197Z,20.14
2018-05-31T00:26:29.261Z,20.22
2018-05-31T00:27:29.332Z,20.24
2018-05-31T00:28:29.402Z,20.26
2018-05-31T00:29:29.470Z,20.19
2018-05-31T00:30:29.530Z,20.10
2018-05-31T00:31:29.598Z,20.14
2018-05-31T00:32:29.977Z,20.09
2018-05-31T00:33:29.738Z,20.07
2018-05-31T00:34:29.808Z,20.07
2018-05-31T00:35:30.242Z,20.06
2018-05-31T00:36:29.935Z,20.11
2018-05-31T00:37:30.004Z,20.04
2018-05-31T00:38:30.174Z,20.00
2018-05-31T00:39:30.895Z,19.99
2018-05-31T00:40:30.930Z,19.96
2018-05-31T00:41:30.275Z,19.99
2018-05-31T00:42:30.338Z,20.11
2018-05-31T00:43:30.411Z,20.09
2018-05-31T00:44:30.478Z,20.16
2018-05-31T00:45:30.539Z,20.14
2018-05-31T00:46:30.607Z,20.26
2018-05-31T00:47:30.946Z,20.24
2018-05-31T00:48:30.747Z,20.24
2018-05-31T00:49:30.814Z,20.32
2018-05-31T00:50:30.875Z,20.22
2018-05-31T00:51:30.943Z,20.19
2018-05-31T00:52:31.611Z,20.24
2018-05-31T00:53:31.388Z,20.26
2018-05-31T00:54:31.143Z,20.28
2018-05-31T00:55:31.211Z,20.21
2018-05-31T00:56:31.279Z,20.14
2018-05-31T00:57:31.347Z,20.13
2018-05-31T00:58:31.419Z,20.13
2018-05-31T00:59:31.487Z,20.11
2018-05-31T01:00:31.547Z,20.06
2018-05-31T01:01:31.831Z,20.07
2018-05-31T01:02:31.679Z,19.96
2018-05-31T01:03:31.756Z,19.96
2018-05-31T01:04:31.823Z,19.91
2018-05-31T01:05:31.883Z,20.04
2018-05-31T01:06:31.952Z,20.00
2018-05-31T01:07:32.735Z,19.88
2018-05-31T01:08:32.239Z,19.91
2018-05-31T01:09:32.768Z,19.95
2018-05-31T01:10:32.523Z,19.99
2018-05-31T01:11:33.075Z,19.95
2018-05-31T01:12:32.352Z,19.99
2018-05-31T01:13:32.428Z,20.00
2018-05-31T01:14:32.499Z,20.04
2018-05-31T01:15:33.116Z,19.92
2018-05-31T01:16:32.621Z,20.04
2018-05-31T01:17:32.684Z,20.06
2018-05-31T01:18:33.072Z,19.88
2018-05-31T01:19:32.829Z,19.92
2018-05-31T01:20:33.016Z,19.89
2018-05-31T01:21:33.172Z,20.00
2018-05-31T01:22:33.036Z,20.02
2018-05-31T01:23:33.240Z,19.91
2018-05-31T01:24:33.157Z,19.92
2018-05-31T01:25:33.300Z,19.82
2018-05-31T01:26:33.356Z,19.82
2018-05-31T01:27:33.360Z,19.86
2018-05-31T01:28:33.433Z,19.81
2018-05-31T01:29:33.600Z,19.88
2018-05-31T01:30:33.565Z,19.84
2018-05-31T01:31:33.628Z,19.73
2018-05-31T01:32:33.693Z,19.74
2018-05-31T01:33:33.769Z,19.74
2018-05-31T01:34:33.833Z,19.77
2018-05-31T01:35:34.025Z,19.69
2018-05-31T01:36:33.961Z,19.67
2018-05-31T01:37:34.029Z,19.70
2018-05-31T01:38:34.321Z,19.76
2018-05-31T01:39:34.165Z,19.74
2018-05-31T01:40:34.229Z,19.74
2018-05-31T01:41:34.297Z,19.76
2018-05-31T01:42:34.449Z,19.74
2018-05-31T01:43:34.437Z,19.76
2018-05-31T01:44:34.508Z,19.76
2018-05-31T01:45:34.569Z,19.77
2018-05-31T01:46:34.633Z,19.73
2018-05-31T01:47:35.305Z,19.81
2018-05-31T01:48:34.774Z,19.85
2018-05-31T01:49:35.149Z,19.81
2018-05-31T01:50:35.142Z,19.84
2018-05-31T01:51:34.973Z,19.86
2018-05-31T01:52:35.034Z,19.82
2018-05-31T01:53:35.209Z,19.81
2018-05-31T01:54:35.169Z,19.84
2018-05-31T01:55:35.773Z,19.76
2018-05-31T01:56:35.310Z,19.76
2018-05-31T01:57:35.501Z,19.84
2018-05-31T01:58:35.442Z,19.79
2018-05-31T01:59:35.510Z,19.86
2018-05-31T02:00:35.570Z,19.82
2018-05-31T02:01:35.986Z,19.77
2018-05-31T02:02:35.706Z,19.81
2018-05-31T02:03:35.779Z,19.85
2018-05-31T02:04:36.450Z,19.85
2018-05-31T02:05:35.910Z,19.81
2018-05-31T02:06:35.974Z,19.82
2018-05-31T02:07:36.038Z,19.89
2018-05-31T02:08:36.122Z,19.91
2018-05-31T02:09:36.314Z,19.88
2018-05-31T02:10:36.285Z,19.99
2018-05-31T02:11:36.307Z,19.91
2018-05-31T02:12:36.374Z,19.94
2018-05-31T02:13:36.731Z,19.88
2018-05-31T02:14:36.515Z,19.92
2018-05-31T02:15:36.575Z,19.89
2018-05-31T02:16:36.642Z,19.91
2018-05-31T02:17:36.717Z,20.06
2018-05-31T02:18:36.783Z,19.94
2018-05-31T02:19:37.178Z,20.02
2018-05-31T02:20:36.911Z,19.99
2018-05-31T02:21:37.315Z,19.91
2018-05-31T02:22:37.043Z,19.91
2018-05-31T02:23:37.223Z,19.96
2018-05-31T02:24:37.179Z,19.91
2018-05-31T02:25:37.247Z,19.95
2018-05-31T02:26:37.311Z,19.96
2018-05-31T02:27:37.379Z,19.95
2018-05-31T02:28:37.453Z,19.91
2018-05-31T02:29:37.519Z,19.95
2018-05-31T02:30:37.579Z,19.91
2018-05-31T02:31:38.556Z,19.88
2018-05-31T02:32:37.711Z,19.94
2018-05-31T02:33:37.787Z,20.00
2018-05-31T02:34:37.851Z,19.96
2018-05-31T02:35:37.911Z,19.94
2018-05-31T02:36:37.979Z,19.99
2018-05-31T02:37:38.513Z,19.92
2018-05-31T02:38:38.348Z,20.04
2018-05-31T02:39:38.832Z,20.00
2018-05-31T02:40:38.248Z,20.10
2018-05-31T02:41:38.316Z,20.09
2018-05-31T02:42:38.380Z,20.04
2018-05-31T02:43:38.455Z,19.88
2018-05-31T02:44:39.019Z,20.00
2018-05-31T02:45:38.583Z,20.07
2018-05-31T02:46:38.651Z,20.00
2018-05-31T02:47:38.720Z,19.88
2018-05-31T02:48:39.549Z,20.00
2018-05-31T02:49:38.856Z,19.92
2018-05-31T02:50:38.915Z,19.91
2018-05-31T02:51:39.132Z,20.02
2018-05-31T02:52:39.047Z,19.88
2018-05-31T02:53:39.272Z,19.99
2018-05-31T02:54:39.183Z,20.03
2018-05-31T02:55:39.252Z,19.99
2018-05-31T02:56:39.316Z,19.99
2018-05-31T02:57:39.385Z,19.91
2018-05-31T02:58:39.457Z,19.92
2018-05-31T02:59:39.524Z,19.96
2018-05-31T03:00:39.584Z,19.91
2018-05-31T03:01:39.652Z,19.96
2018-05-31T03:02:40.276Z,19.86
2018-05-31T03:03:39.789Z,19.91
2018-05-31T03:04:39.860Z,19.89
2018-05-31T03:05:39.918Z,19.86
2018-05-31T03:06:39.985Z,19.91
2018-05-31T03:07:40.053Z,19.86
2018-05-31T03:08:40.808Z,19.79
2018-05-31T03:09:40.185Z,19.91
2018-05-31T03:10:40.253Z,19.82
2018-05-31T03:11:40.316Z,19.86
2018-05-31T03:12:40.385Z,19.85
2018-05-31T03:13:40.466Z,19.88
2018-05-31T03:14:40.525Z,19.88
2018-05-31T03:15:40.585Z,19.85
2018-05-31T03:16:40.653Z,19.82
2018-05-31T03:17:40.721Z,19.73
2018-05-31T03:18:40.793Z,19.77
2018-05-31T03:19:40.857Z,19.76
2018-05-31T03:20:40.921Z,19.69
2018-05-31T03:21:40.985Z,19.74
2018-05-31T03:22:41.054Z,19.76
2018-05-31T03:23:41.229Z,19.76
2018-05-31T03:24:41.187Z,19.77
2018-05-31T03:25:41.254Z,19.85
2018-05-31T03:26:42.026Z,19.73
2018-05-31T03:27:41.822Z,19.82
2018-05-31T03:28:42.142Z,19.84
2018-05-31T03:29:42.078Z,19.81
2018-05-31T03:30:41.588Z,19.84
2018-05-31T03:31:41.654Z,19.86
2018-05-31T03:32:41.722Z,19.79
2018-05-31T03:33:41.798Z,19.84
2018-05-31T03:34:41.862Z,19.85
2018-05-31T03:35:42.610Z,19.77
2018-05-31T03:36:41.994Z,19.86
2018-05-31T03:37:42.058Z,19.79
2018-05-31T03:38:42.275Z,19.76
2018-05-31T03:39:42.190Z,19.71
2018-05-31T03:40:42.254Z,19.79
2018-05-31T03:41:42.322Z,19.74
2018-05-31T03:42:43.194Z,19.82
2018-05-31T03:43:42.462Z,19.79
2018-05-31T03:44:42.530Z,19.74
2018-05-31T03:45:42.591Z,19.73
2018-05-31T03:46:42.654Z,19.70
2018-05-31T03:47:42.722Z,19.74
2018-05-31T03:48:42.794Z,19.81
2018-05-31T03:49:42.862Z,19.77
2018-05-31T03:50:42.924Z,19.76
2018-05-31T03:51:42.990Z,19.76
2018-05-31T03:52:43.399Z,19.67
2018-05-31T03:53:43.287Z,19.66
2018-05-31T03:54:43.191Z,19.69
2018-05-31T03:55:43.843Z,19.66
2018-05-31T03:56:43.955Z,19.64
2018-05-31T03:57:43.391Z,19.63
2018-05-31T03:58:43.474Z,19.63
2018-05-31T03:59:43.847Z,19.55
2018-05-31T04:00:43.923Z,19.62
2018-05-31T04:01:44.067Z,19.62
2018-05-31T04:02:43.723Z,19.59
2018-05-31T04:03:43.795Z,19.66
2018-05-31T04:04:43.871Z,19.69
2018-05-31T04:05:43.926Z,19.69
2018-05-31T04:06:43.991Z,19.66
2018-05-31T04:07:44.392Z,19.67
2018-05-31T04:08:44.543Z,19.64
2018-05-31T04:09:44.563Z,19.56
2018-05-31T04:10:44.256Z,19.63
2018-05-31T04:11:44.479Z,19.62
2018-05-31T04:12:44.972Z,19.63
2018-05-31T04:13:44.466Z,19.55
2018-05-31T04:14:44.532Z,19.52
2018-05-31T04:15:44.592Z,19.54
2018-05-31T04:16:44.659Z,19.49
2018-05-31T04:17:44.724Z,19.59
2018-05-31T04:18:44.812Z,19.45
2018-05-31T04:19:44.863Z,19.54
2018-05-31T04:20:44.923Z,19.51
2018-05-31T04:21:44.991Z,19.59
2018-05-31T04:22:45.059Z,19.49
2018-05-31T04:23:45.497Z,19.49
2018-05-31T04:24:46.048Z,19.58
2018-05-31T04:25:45.260Z,19.67
2018-05-31T04:26:45.725Z,19.63
2018-05-31T04:27:45.896Z,19.69
2018-05-31T04:28:45.470Z,19.71
2018-05-31T04:29:46.221Z,19.85
2018-05-31T04:30:45.592Z,19.81
2018-05-31T04:31:45.660Z,19.92
2018-05-31T04:32:46.240Z,19.92
2018-05-31T04:33:45.802Z,20.06
2018-05-31T04:34:46.241Z,20.13
2018-05-31T04:35:45.934Z,20.19
2018-05-31T04:36:46.188Z,20.26
2018-05-31T04:37:46.061Z,20.21
2018-05-31T04:38:46.242Z,20.25
2018-05-31T04:39:46.957Z,20.34
2018-05-31T04:40:46.261Z,20.32
2018-05-31T04:41:46.329Z,20.50
2018-05-31T04:42:46.397Z,20.48
2018-05-31T04:43:46.817Z,20.59
2018-05-31T04:44:47.125Z,20.63
2018-05-31T04:45:46.597Z,20.69
2018-05-31T04:46:46.669Z,20.75
2018-05-31T04:47:46.733Z,20.81
2018-05-31T04:48:47.149Z,20.84
2018-05-31T04:49:46.868Z,20.87
2018-05-31T04:50:47.529Z,20.84
2018-05-31T04:51:47.002Z,20.99
2018-05-31T04:52:47.597Z,20.97
2018-05-31T04:53:47.341Z,21.05
2018-05-31T04:54:47.201Z,21.06
2018-05-31T04:55:47.269Z,21.24
2018-05-31T04:56:47.350Z,21.32
2018-05-31T04:57:47.405Z,21.37
2018-05-31T04:58:49.064Z,21.37
2018-05-31T04:59:47.773Z,21.54
2018-05-31T05:00:47.615Z,21.62
2018-05-31T05:01:47.669Z,21.70
2018-05-31T05:02:47.741Z,21.80
2018-05-31T05:03:47.821Z,21.89
2018-05-31T05:04:47.890Z,21.91
2018-05-31T05:05:48.609Z,21.96
2018-05-31T05:06:48.017Z,21.99
2018-05-31T05:07:48.081Z,22.00
2018-05-31T05:08:48.309Z,22.13
2018-05-31T05:09:48.221Z,22.13
2018-05-31T05:10:48.282Z,22.25
2018-05-31T05:11:48.349Z,22.23
2018-05-31T05:12:48.421Z,22.41
2018-05-31T05:13:48.493Z,22.44
2018-05-31T05:14:48.562Z,22.51
2018-05-31T05:15:50.561Z,22.55
2018-05-31T05:16:48.693Z,22.59
2018-05-31T05:17:49.238Z,22.65
2018-05-31T05:18:49.594Z,22.69
2018-05-31T05:19:49.462Z,22.70
2018-05-31T05:20:48.962Z,22.62
2018-05-31T05:21:49.030Z,22.72
2018-05-31T05:22:49.319Z,22.69
2018-05-31T05:23:49.186Z,22.81
2018-05-31T05:24:49.238Z,22.91
2018-05-31T05:25:49.306Z,22.85
2018-05-31T05:26:49.374Z,23.08
2018-05-31T05:27:49.474Z,22.96
2018-05-31T05:28:49.748Z,23.12
2018-05-31T05:29:50.178Z,23.15
2018-05-31T05:30:49.786Z,23.13
2018-05-31T05:31:49.758Z,23.09
2018-05-31T05:32:49.783Z,23.10
2018-05-31T05:33:49.858Z,23.09
2018-05-31T05:34:49.927Z,23.08
2018-05-31T05:35:50.035Z,23.10
2018-05-31T05:36:50.298Z,23.12
2018-05-31T05:37:50.134Z,23.13
2018-05-31T05:38:50.570Z,23.13
2018-05-31T05:39:50.259Z,23.13
2018-05-31T05:40:50.331Z,23.12
2018-05-31T05:41:50.399Z,23.17
2018-05-31T05:42:50.471Z,23.25
2018-05-31T05:43:50.542Z,23.32
2018-05-31T05:44:50.983Z,23.32
2018-05-31T05:45:50.691Z,23.37
2018-05-31T05:46:50.747Z,23.39
2018-05-31T05:47:50.811Z,23.43
2018-05-31T05:48:50.896Z,23.44
2018-05-31T05:49:52.614Z,23.47
2018-05-31T05:50:51.015Z,23.50
2018-05-31T05:51:51.088Z,23.58
2018-05-31T05:52:51.155Z,23.56
2018-05-31T05:53:52.568Z,23.62
2018-05-31T05:54:51.387Z,23.71
2018-05-31T05:55:51.719Z,23.68
2018-05-31T05:56:51.431Z,23.77
2018-05-31T05:57:51.588Z,23.80
2018-05-31T05:58:51.569Z,23.86
2018-05-31T05:59:51.644Z,23.87
2018-05-31T06:00:51.712Z,23.88
2018-05-31T06:01:51.849Z,23.84
2018-05-31T06:02:51.879Z,23.84
2018-05-31T06:03:51.912Z,23.86
2018-05-31T06:04:51.988Z,23.86
2018-05-31T06:05:52.059Z,23.92
2018-05-31T06:06:52.808Z,23.98
2018-05-31T06:07:52.204Z,24.13
2018-05-31T06:08:52.436Z,24.23
2018-05-31T06:09:52.398Z,24.23
2018-05-31T06:10:52.392Z,24.29
2018-05-31T06:11:52.557Z,24.28
2018-05-31T06:12:52.537Z,24.33
2018-05-31T06:13:53.292Z,24.48
2018-05-31T06:14:52.713Z,24.65
2018-05-31T06:15:52.769Z,24.88
2018-05-31T06:16:52.869Z,25.17
2018-05-31T06:17:52.985Z,25.55
2018-05-31T06:18:52.967Z,25.98
2018-05-31T06:19:53.368Z,26.19
2018-05-31T06:20:53.173Z,26.47
2018-05-31T06:21:53.185Z,26.80
2018-05-31T06:22:53.408Z,26.70
2018-05-31T06:23:53.318Z,26.70
2018-05-31T06:24:53.857Z,26.52
2018-05-31T06:25:53.461Z,26.62
2018-05-31T06:26:53.525Z,26.65
2018-05-31T06:27:53.585Z,26.68
2018-05-31T06:28:53.673Z,26.70
2018-05-31T06:29:53.746Z,26.90
2018-05-31T06:30:53.832Z,26.99
2018-05-31T06:31:53.893Z,27.02
2018-05-31T06:32:53.946Z,27.15
2018-05-31T06:33:54.018Z,27.22
2018-05-31T06:34:55.323Z,27.27
2018-05-31T06:35:54.161Z,27.18
2018-05-31T06:36:54.241Z,27.27
2018-05-31T06:37:54.314Z,27.27
2018-05-31T06:38:54.431Z,27.37
2018-05-31T06:39:54.457Z,27.22
2018-05-31T06:40:54.554Z,27.07
2018-05-31T06:41:54.610Z,26.95
2018-05-31T06:42:54.714Z,27.20
2018-05-31T06:43:54.741Z,27.18
2018-05-31T06:44:54.827Z,26.93
2018-05-31T06:45:54.968Z,26.70
2018-05-31T06:46:54.954Z,26.55
2018-05-31T06:47:56.926Z,26.38
2018-05-31T06:48:55.121Z,26.28
2018-05-31T06:49:55.418Z,26.40
2018-05-31T06:50:55.246Z,26.60
2018-05-31T06:51:55.314Z,26.81
2018-05-31T06:52:55.394Z,26.62
2018-05-31T06:53:55.462Z,26.71
2018-05-31T06:54:55.555Z,26.90
2018-05-31T06:55:55.650Z,26.88
2018-05-31T06:56:57.214Z,26.93
2018-05-31T06:57:55.754Z,26.63
2018-05-31T06:58:55.831Z,26.78
2018-05-31T06:59:55.934Z,26.77
2018-05-31T07:00:55.980Z,26.66
2018-05-31T07:01:56.039Z,26.74
2018-05-31T07:02:56.102Z,26.83
2018-05-31T07:03:56.176Z,26.89
2018-05-31T07:04:56.250Z,26.99
2018-05-31T07:05:56.514Z,27.22
2018-05-31T07:06:57.395Z,27.78
2018-05-31T07:07:56.490Z,27.54
2018-05-31T07:08:56.538Z,27.49
2018-05-31T07:09:56.614Z,27.37
2018-05-31T07:10:56.724Z,27.49
2018-05-31T07:11:56.795Z,27.45
2018-05-31T07:12:56.863Z,27.49
2018-05-31T07:13:57.731Z,27.68
2018-05-31T07:14:56.971Z,28.70
2018-05-31T07:15:57.104Z,28.56
2018-05-31T07:16:57.167Z,28.23
2018-05-31T07:17:57.187Z,27.52
2018-05-31T07:18:57.804Z,26.96
2018-05-31T07:19:57.516Z,26.96
2018-05-31T07:20:58.353Z,26.80
2018-05-31T07:21:57.483Z,26.18
2018-05-31T07:22:57.851Z,25.70
2018-05-31T07:23:57.691Z,25.65
2018-05-31T07:24:57.696Z,25.81
2018-05-31T07:25:57.852Z,25.98
2018-05-31T07:26:57.844Z,26.34
2018-05-31T07:27:57.908Z,26.38
2018-05-31T07:28:57.991Z,26.55
2018-05-31T07:29:58.064Z,26.62
2018-05-31T07:30:58.172Z,26.80
2018-05-31T07:31:58.224Z,26.99
2018-05-31T07:32:59.524Z,27.02
2018-05-31T07:33:58.336Z,27.14
2018-05-31T07:34:59.036Z,27.22
2018-05-31T07:35:58.492Z,27.40
2018-05-31T07:36:58.588Z,27.37
2018-05-31T07:37:58.632Z,27.54
2018-05-31T07:38:58.700Z,27.64
2018-05-31T07:39:58.776Z,27.58
2018-05-31T07:40:59.072Z,27.63
2018-05-31T07:41:58.920Z,27.68
2018-05-31T07:42:59.484Z,27.55
2018-05-31T07:43:59.124Z,27.74
2018-05-31T07:44:59.128Z,27.78
2018-05-31T07:45:59.361Z,27.90
2018-05-31T07:46:59.276Z,27.93
2018-05-31T07:47:59.413Z,27.92
2018-05-31T07:48:59.416Z,28.01
2018-05-31T07:49:59.488Z,27.87
2018-05-31T07:50:59.568Z,27.80
2018-05-31T07:52:00.313Z,27.51
2018-05-31T07:52:59.705Z,27.15
2018-05-31T07:53:59.777Z,28.11
2018-05-31T07:54:59.848Z,28.82
2018-05-31T07:55:59.929Z,29.78
2018-05-31T07:57:00.001Z,30.48
2018-05-31T07:58:00.117Z,30.68
2018-05-31T07:59:00.145Z,31.36
2018-05-31T08:00:00.221Z,31.61
2018-05-31T08:01:00.317Z,31.66
2018-05-31T08:02:00.365Z,31.18
2018-05-31T08:03:00.441Z,32.04
2018-05-31T08:04:00.517Z,32.83
2018-05-31T08:05:00.597Z,33.37
2018-05-31T08:06:00.763Z,33.34
2018-05-31T08:07:03.524Z,33.50
2018-05-31T08:08:00.829Z,33.22
2018-05-31T08:09:01.469Z,33.17
2018-05-31T08:10:00.981Z,32.95
2018-05-31T08:11:01.103Z,33.31
2018-05-31T08:12:01.150Z,32.23
2018-05-31T08:13:01.280Z,32.80
2018-05-31T08:14:01.290Z,33.28
2018-05-31T08:15:01.834Z,32.27
2018-05-31T08:16:01.460Z,31.66
2018-05-31T08:17:01.536Z,31.06
2018-05-31T08:18:01.614Z,31.18
2018-05-31T08:19:01.681Z,30.13
2018-05-31T08:20:01.765Z,29.57
2018-05-31T08:21:01.846Z,28.97
2018-05-31T08:22:01.925Z,28.89
2018-05-31T08:23:01.993Z,28.67
2018-05-31T08:24:02.069Z,28.76
2018-05-31T08:25:02.145Z,29.35
2018-05-31T08:26:02.431Z,29.54
2018-05-31T08:27:02.461Z,29.26
2018-05-31T08:28:02.372Z,29.39
2018-05-31T08:29:02.445Z,29.20
2018-05-31T08:30:02.627Z,29.24
2018-05-31T08:31:02.597Z,29.13
2018-05-31T08:32:02.677Z,29.08
2018-05-31T08:33:02.753Z,28.76
2018-05-31T08:34:02.821Z,28.30
2018-05-31T08:35:02.893Z,27.98
2018-05-31T08:36:02.969Z,27.63
2018-05-31T08:37:03.043Z,27.49
2018-05-31T08:38:03.123Z,27.22
2018-05-31T08:39:03.183Z,27.03
2018-05-31T08:40:03.259Z,27.02
2018-05-31T08:41:03.330Z,27.11
2018-05-31T08:42:03.515Z,26.97
2018-05-31T08:43:03.479Z,26.95
2018-05-31T08:44:03.597Z,26.73
2018-05-31T08:45:03.811Z,26.65
2018-05-31T08:46:03.699Z,26.68
2018-05-31T08:47:04.187Z,26.63
2018-05-31T08:48:03.847Z,26.56
2018-05-31T08:49:04.144Z,26.44
2018-05-31T08:50:03.988Z,26.34
2018-05-31T08:51:04.073Z,26.16
2018-05-31T08:52:04.300Z,26.34
2018-05-31T08:53:04.204Z,26.34
2018-05-31T08:54:04.275Z,26.21
2018-05-31T08:55:04.352Z,26.31
2018-05-31T08:56:04.420Z,26.31
2018-05-31T08:57:04.780Z,26.36
2018-05-31T08:58:04.579Z,26.33
2018-05-31T08:59:04.636Z,26.43
2018-05-31T09:00:04.792Z,26.48
2018-05-31T09:01:04.780Z,26.55
2018-05-31T09:02:04.856Z,26.63
2018-05-31T09:03:04.928Z,26.65
2018-05-31T09:04:04.992Z,26.65
2018-05-31T09:05:05.064Z,26.58
2018-05-31T09:06:05.136Z,26.63
2018-05-31T09:07:05.208Z,26.38
2018-05-31T09:08:05.432Z,26.41
2018-05-31T09:09:05.348Z,26.34
2018-05-31T09:10:05.420Z,26.26
2018-05-31T09:11:05.704Z,26.09
2018-05-31T09:12:05.564Z,25.93
2018-05-31T09:13:06.248Z,25.88
2018-05-31T09:14:06.045Z,25.87
2018-05-31T09:15:05.966Z,25.83
2018-05-31T09:16:05.849Z,25.75
2018-05-31T09:17:05.921Z,25.69
2018-05-31T09:18:05.997Z,25.72
2018-05-31T09:19:06.412Z,25.66
2018-05-31T09:20:06.139Z,25.87
2018-05-31T09:21:06.205Z,25.91
2018-05-31T09:22:06.273Z,25.96
2018-05-31T09:23:06.566Z,26.13
2018-05-31T09:24:06.573Z,26.34
2018-05-31T09:25:06.485Z,26.48
2018-05-31T09:26:06.777Z,26.28
2018-05-31T09:27:06.629Z,26.41
2018-05-31T09:28:07.133Z,26.62
2018-05-31T09:29:06.777Z,26.43
2018-05-31T09:30:06.965Z,26.62
2018-05-31T09:31:06.917Z,26.62
2018-05-31T09:32:06.981Z,26.70
2018-05-31T09:33:07.053Z,26.71
2018-05-31T09:34:07.125Z,26.81
2018-05-31T09:35:07.506Z,26.74
2018-05-31T09:36:07.265Z,26.80
2018-05-31T09:37:07.341Z,26.92
2018-05-31T09:38:07.561Z,26.96
2018-05-31T09:39:07.477Z,26.96
2018-05-31T09:40:07.729Z,27.02
2018-05-31T09:41:07.645Z,27.03
2018-05-31T09:42:07.693Z,27.25
2018-05-31T09:43:07.761Z,27.14
2018-05-31T09:44:07.835Z,27.29
2018-05-31T09:45:08.160Z,27.25
2018-05-31T09:46:08.289Z,27.30
2018-05-31T09:47:08.047Z,27.26
2018-05-31T09:48:08.113Z,27.11
2018-05-31T09:49:08.189Z,27.25
2018-05-31T09:50:08.582Z,27.25
2018-05-31T09:51:08.574Z,27.12
2018-05-31T09:52:08.562Z,27.12
2018-05-31T09:53:08.474Z,27.11
2018-05-31T09:54:08.545Z,27.21
2018-05-31T09:55:08.890Z,27.15
2018-05-31T09:56:08.774Z,27.18
2018-05-31T09:57:08.762Z,27.33
2018-05-31T09:58:08.847Z,27.27
2018-05-31T09:59:08.901Z,27.08
2018-05-31T10:00:09.378Z,26.95
2018-05-31T10:01:09.070Z,26.88
2018-05-31T10:02:09.365Z,26.83
2018-05-31T10:03:09.186Z,26.75
2018-05-31T10:04:09.258Z,26.90
2018-05-31T10:05:09.332Z,26.93
2018-05-31T10:06:09.562Z,27.00
2018-05-31T10:07:09.470Z,27.03
2018-05-31T10:08:09.542Z,27.05
2018-05-31T10:09:09.614Z,26.99
2018-05-31T10:10:09.690Z,26.77
2018-05-31T10:11:09.763Z,26.74
2018-05-31T10:12:09.835Z,26.68
2018-05-31T10:13:09.898Z,26.70
2018-05-31T10:14:09.987Z,26.68
2018-05-31T10:15:10.043Z,26.68
2018-05-31T10:16:10.223Z,26.56
2018-05-31T10:17:10.247Z,26.62
2018-05-31T10:18:10.255Z,26.62
2018-05-31T10:19:10.334Z,26.66
2018-05-31T10:20:10.395Z,26.68
2018-05-31T10:21:10.474Z,26.65
2018-05-31T10:22:10.835Z,26.52
2018-05-31T10:23:10.607Z,26.59
2018-05-31T10:24:10.679Z,26.63
2018-05-31T10:25:10.811Z,26.51
2018-05-31T10:26:10.943Z,26.62
2018-05-31T10:27:11.084Z,26.37
2018-05-31T10:28:10.967Z,26.41
2018-05-31T10:29:11.120Z,26.65
2018-05-31T10:30:11.116Z,26.62
2018-05-31T10:31:11.175Z,26.62
2018-05-31T10:32:11.420Z,26.78
2018-05-31T10:33:11.344Z,26.96
2018-05-31T10:34:11.392Z,26.74
2018-05-31T10:35:11.459Z,27.00
2018-05-31T10:36:11.538Z,27.35
2018-05-31T10:37:11.608Z,27.60
2018-05-31T10:38:11.679Z,28.27
2018-05-31T10:39:11.744Z,28.30
2018-05-31T10:40:11.936Z,28.26
2018-05-31T10:41:11.888Z,28.79
2018-05-31T10:42:11.963Z,28.84
2018-05-31T10:43:12.036Z,29.29
2018-05-31T10:44:12.100Z,29.45
2018-05-31T10:45:12.172Z,29.76
2018-05-31T10:46:12.268Z,29.94
2018-05-31T10:47:12.468Z,29.73
2018-05-31T10:48:12.388Z,29.44
2018-05-31T10:49:12.501Z,29.35
2018-05-31T10:50:12.561Z,29.05
2018-05-31T10:51:12.697Z,28.93
2018-05-31T10:52:12.681Z,29.01
2018-05-31T10:53:12.753Z,28.79
2018-05-31T10:54:12.820Z,28.75
2018-05-31T10:55:12.889Z,28.60
2018-05-31T10:56:12.960Z,28.44
2018-05-31T10:57:13.065Z,28.66
2018-05-31T10:58:13.113Z,28.63
2018-05-31T10:59:13.201Z,28.78
2018-05-31T11:00:13.253Z,28.75
2018-05-31T11:01:13.321Z,28.98
2018-05-31T11:02:13.404Z,28.93
2018-05-31T11:03:13.469Z,28.93
2018-05-31T11:04:13.533Z,28.76
2018-05-31T11:05:13.605Z,28.67
2018-05-31T11:06:13.693Z,28.69
2018-05-31T11:07:13.755Z,28.69
2018-05-31T11:08:13.829Z,28.57
2018-05-31T11:09:13.913Z,28.48
2018-05-31T11:10:13.974Z,28.52
2018-05-31T11:11:14.036Z,28.38
2018-05-31T11:12:14.234Z,28.42
2018-05-31T11:13:14.178Z,28.74
2018-05-31T11:14:14.249Z,28.88
2018-05-31T11:15:14.322Z,29.19
2018-05-31T11:16:14.401Z,29.39
2018-05-31T11:17:14.469Z,29.65
2018-05-31T11:18:14.542Z,29.69
2018-05-31T11:19:14.606Z,29.63
2018-05-31T11:20:14.682Z,29.41
2018-05-31T11:21:14.750Z,29.45
2018-05-31T11:22:14.830Z,29.47
2018-05-31T11:23:14.926Z,29.45
2018-05-31T11:24:15.014Z,29.44
2018-05-31T11:25:15.041Z,29.44
2018-05-31T11:26:15.114Z,29.51
2018-05-31T11:27:15.342Z,29.32
2018-05-31T11:28:15.250Z,29.35
2018-05-31T11:29:15.372Z,29.41
2018-05-31T11:30:15.395Z,29.47
2018-05-31T11:31:15.471Z,29.44
2018-05-31T11:32:15.547Z,29.42
2018-05-31T11:33:15.619Z,29.47
2018-05-31T11:34:15.711Z,29.42
2018-05-31T11:35:15.758Z,29.57
2018-05-31T11:36:15.827Z,29.68
2018-05-31T11:37:15.909Z,29.82
2018-05-31T11:38:15.983Z,29.87
2018-05-31T11:39:16.042Z,29.75
2018-05-31T11:40:16.115Z,30.00
2018-05-31T11:41:16.187Z,29.91
2018-05-31T11:42:16.258Z,29.73
2018-05-31T11:43:16.452Z,29.65
2018-05-31T11:44:16.403Z,29.79
2018-05-31T11:45:16.475Z,29.78
2018-05-31T11:46:16.547Z,29.98
2018-05-31T11:47:16.887Z,30.18
2018-05-31T11:48:16.763Z,30.00
2018-05-31T11:49:16.775Z,30.10
2018-05-31T11:50:16.835Z,30.25
2018-05-31T11:51:16.907Z,30.39
2018-05-31T11:52:16.983Z,30.13
2018-05-31T11:53:17.064Z,30.15
2018-05-31T11:54:17.136Z,30.15
2018-05-31T11:55:17.199Z,29.91
2018-05-31T11:56:17.275Z,30.13
2018-05-31T11:57:17.344Z,30.40
2018-05-31T11:58:17.424Z,30.31
2018-05-31T11:59:17.496Z,30.50
2018-05-31T12:00:17.560Z,30.69
2018-05-31T12:01:17.636Z,30.50
2018-05-31T12:02:17.708Z,30.34
2018-05-31T12:03:17.785Z,30.10
2018-05-31T12:04:17.872Z,29.91
2018-05-31T12:05:17.932Z,29.91
2018-05-31T12:06:18.072Z,30.27
2018-05-31T12:07:18.080Z,30.65
2018-05-31T12:08:18.477Z,30.92
2018-05-31T12:09:18.220Z,30.94
2018-05-31T12:10:18.288Z,31.02
2018-05-31T12:11:18.360Z,31.17
2018-05-31T12:12:18.436Z,31.28
2018-05-31T12:13:18.516Z,31.18
2018-05-31T12:14:18.592Z,31.27
2018-05-31T12:15:18.660Z,31.55
2018-05-31T12:16:18.731Z,31.77
2018-05-31T12:17:18.849Z,31.97
2018-05-31T12:18:18.880Z,32.00
2018-05-31T12:19:18.954Z,31.94
2018-05-31T12:20:19.021Z,31.65
2018-05-31T12:21:19.093Z,31.51
2018-05-31T12:22:19.170Z,31.47
2018-05-31T12:23:19.415Z,31.22
2018-05-31T12:24:19.316Z,31.00
2018-05-31T12:25:19.488Z,31.03
2018-05-31T12:26:19.456Z,30.83
2018-05-31T12:27:19.546Z,30.65
2018-05-31T12:28:19.617Z,30.06
2018-05-31T12:29:19.691Z,29.50
2018-05-31T12:30:19.756Z,29.29
2018-05-31T12:31:19.829Z,29.47
2018-05-31T12:32:19.905Z,29.47
2018-05-31T12:33:19.985Z,29.54
2018-05-31T12:34:20.212Z,29.76
2018-05-31T12:35:20.128Z,29.78
2018-05-31T12:36:20.257Z,29.56
2018-05-31T12:37:20.277Z,29.47
2018-05-31T12:38:20.351Z,29.36
2018-05-31T12:39:20.669Z,29.32
2018-05-31T12:40:20.491Z,29.42
2018-05-31T12:41:20.574Z,29.42
2018-05-31T12:42:20.647Z,29.51
2018-05-31T12:43:20.709Z,29.45
2018-05-31T12:44:20.794Z,29.79
2018-05-31T12:45:20.981Z,29.97
2018-05-31T12:46:20.977Z,29.79
2018-05-31T12:47:21.241Z,29.49
2018-05-31T12:48:21.077Z,29.24
2018-05-31T12:49:21.181Z,29.51
2018-05-31T12:50:21.225Z,29.51
2018-05-31T12:51:21.298Z,29.60
2018-05-31T12:52:21.370Z,30.08
2018-05-31T12:53:21.445Z,30.55